createdAt,value
2018-03-16T00:02:26.777Z,23.92
2018-03-16T00:04:53.585Z,24.52
2018-03-16T00:07:20.687Z,23.50
2018-03-16T00:09:47.844Z,22.95
2018-03-16T00:12:14.077Z,24.50
2018-03-16T00:14:40.244Z,23.48
2018-03-16T00:17:06.374Z,26.17
2018-03-16T00:19:32.509Z,25.30
2018-03-16T00:21:58.648Z,23.67
2018-03-16T00:24:25.937Z,25.75
2018-03-16T00:26:52.560Z,23.73
2018-03-16T00:29:22.143Z,24.30
2018-03-16T00:31:49.482Z,25.73
2018-03-16T00:34:18.241Z,25.48
2018-03-16T00:36:45.104Z,24.77
2018-03-16T00:39:11.700Z,22.45
2018-03-16T00:41:38.745Z,25.52
2018-03-16T00:44:05.105Z,24.75
2018-03-16T00:46:31.239Z,26.12
2018-03-16T00:48:57.448Z,25.83
2018-03-16T00:51:23.770Z,23.33
2018-03-16T00:54:03.889Z,25.40
2018-03-16T00:56:30.281Z,24.08
2018-03-16T00:58:58.427Z,24.48
2018-03-16T01:01:26.070Z,24.90
2018-03-16T01:03:58.291Z,23.90
2018-03-16T01:06:27.533Z,25.17
2018-03-16T01:08:58.102Z,25.65
2018-03-16T01:11:24.757Z,24.65
2018-03-16T01:13:53.571Z,23.00
2018-03-16T01:16:23.704Z,27.58
2018-03-16T01:18:59.023Z,25.35
2018-03-16T01:21:26.554Z,25.77
2018-03-16T01:23:53.307Z,27.58
2018-03-16T01:26:20.216Z,27.50
2018-03-16T01:28:47.797Z,26.55
2018-03-16T01:31:15.300Z,27.08
2018-03-16T01:33:43.922Z,26.70
2018-03-16T01:36:12.447Z,27.85
2018-03-16T01:38:43.302Z,26.70
2018-03-16T01:44:02.529Z,27.15
2018-03-16T01:46:29.621Z,25.88
2018-03-16T01:48:58.503Z,28.17
2018-03-16T01:51:27.294Z,28.12
2018-03-16T01:53:55.053Z,27.02
2018-03-16T01:56:21.330Z,29.50
2018-03-16T01:58:47.603Z,27.75
2018-03-16T02:01:14.004Z,28.02
2018-03-16T02:03:40.279Z,28.10
2018-03-16T02:06:07.321Z,27.10
2018-03-16T02:08:33.602Z,26.42
2018-03-16T02:11:00.603Z,28.62
2018-03-16T02:13:27.252Z,28.35
2018-03-16T02:15:53.544Z,29.50
2018-03-16T02:18:19.825Z,28.38
2018-03-16T02:20:46.158Z,28.45
2018-03-16T02:23:12.441Z,28.35
2018-03-16T02:25:38.730Z,26.75
2018-03-16T02:28:05.765Z,28.60
2018-03-16T02:30:32.068Z,28.62
2018-03-16T02:32:59.173Z,28.45
2018-03-16T02:35:25.261Z,27.13
2018-03-16T02:37:51.369Z,28.45
2018-03-16T02:40:17.680Z,28.33
2018-03-16T02:42:45.460Z,28.65
2018-03-16T02:45:11.573Z,28.50
2018-03-16T02:47:37.876Z,28.62
2018-03-16T02:50:04.167Z,27.30
2018-03-16T02:52:30.603Z,27.20
2018-03-16T02:54:56.880Z,28.02
2018-03-16T02:57:23.348Z,26.73
2018-03-16T02:59:50.391Z,27.70
2018-03-16T03:02:16.831Z,26.52
2018-03-16T03:04:43.134Z,25.98
2018-03-16T03:07:09.434Z,26.48
2018-03-16T03:09:35.739Z,27.60
2018-03-16T03:12:02.033Z,25.17
2018-03-16T03:14:28.447Z,26.12
2018-03-16T03:16:56.971Z,26.35
2018-03-16T03:19:23.250Z,28.27
2018-03-16T03:21:49.546Z,27.77
2018-03-16T03:24:15.892Z,29.15
2018-03-16T03:26:42.179Z,28.08
2018-03-16T03:29:08.962Z,27.42
2018-03-16T03:31:35.258Z,26.73
2018-03-16T03:34:01.545Z,25.88
2018-03-16T03:36:27.850Z,27.00
2018-03-16T03:38:54.891Z,26.65
2018-03-16T03:41:21.200Z,26.00
2018-03-16T03:43:47.308Z,26.62
2018-03-16T03:46:14.370Z,27.65
2018-03-16T03:48:41.224Z,27.50
2018-03-16T03:51:09.682Z,26.65
2018-03-16T03:53:35.764Z,27.55
2018-03-16T03:56:02.603Z,27.37
2018-03-16T03:58:28.784Z,25.70
2018-03-16T04:00:54.896Z,27.10
2018-03-16T04:03:21.000Z,29.73
2018-03-16T04:05:47.096Z,28.10
2018-03-16T04:08:13.961Z,26.27
2018-03-16T04:10:40.172Z,29.12
2018-03-16T04:13:06.245Z,26.92
2018-03-16T04:15:33.064Z,30.30
2018-03-16T04:17:59.188Z,28.42
2018-03-16T04:20:25.327Z,28.05
2018-03-16T04:22:51.440Z,26.08
2018-03-16T04:25:17.507Z,27.70
2018-03-16T04:27:43.595Z,27.17
2018-03-16T04:30:10.417Z,28.35
2018-03-16T04:32:36.513Z,27.13
2018-03-16T04:35:02.614Z,28.10
2018-03-16T04:37:29.564Z,28.02
2018-03-16T04:39:55.724Z,28.08
2018-03-16T04:42:21.813Z,28.70
2018-03-16T04:44:47.940Z,26.27
2018-03-16T04:47:14.158Z,26.02
2018-03-16T04:49:40.372Z,28.30
2018-03-16T04:52:06.666Z,26.65
2018-03-16T04:54:32.807Z,26.60
2018-03-16T04:56:59.293Z,25.37
2018-03-16T04:59:25.382Z,26.75
2018-03-16T05:01:52.420Z,25.75
2018-03-16T05:04:18.498Z,27.62
2018-03-16T05:06:44.607Z,28.20
2018-03-16T05:09:10.749Z,28.98
2018-03-16T05:11:36.832Z,27.58
2018-03-16T05:14:02.945Z,26.05
2018-03-16T05:16:29.778Z,28.85
2018-03-16T05:18:56.656Z,29.80
2018-03-16T05:21:22.751Z,29.37
2018-03-16T05:23:49.601Z,30.45
2018-03-16T05:26:16.284Z,28.05
2018-03-16T05:28:42.364Z,29.17
2018-03-16T05:31:09.255Z,31.05
2018-03-16T05:33:35.667Z,29.63
2018-03-16T05:36:02.025Z,27.40
2018-03-16T05:38:29.212Z,28.60
2018-03-16T05:40:55.523Z,30.50
2018-03-16T05:43:22.842Z,31.00
2018-03-16T05:45:48.950Z,29.08
2018-03-16T05:48:15.266Z,27.30
2018-03-16T05:50:42.288Z,27.27
2018-03-16T05:53:08.390Z,27.70
2018-03-16T05:55:34.465Z,29.63
2018-03-16T05:58:00.771Z,28.35
2018-03-16T06:00:27.048Z,27.77
2018-03-16T06:02:53.322Z,28.23
2018-03-16T06:05:19.632Z,26.95
2018-03-16T06:07:45.742Z,27.95
2018-03-16T06:10:12.077Z,28.45
2018-03-16T06:12:38.424Z,26.52
2018-03-16T06:15:04.758Z,27.08
2018-03-16T06:17:31.781Z,26.48
2018-03-16T06:19:58.073Z,24.40
2018-03-16T06:22:24.348Z,24.10
2018-03-16T06:24:50.758Z,24.37
2018-03-16T06:27:17.066Z,24.60
2018-03-16T06:29:44.228Z,23.30
2018-03-16T06:32:10.525Z,23.15
2018-03-16T06:34:36.875Z,22.65
2018-03-16T06:37:03.176Z,23.27
2018-03-16T06:39:30.210Z,21.75
2018-03-16T06:41:56.292Z,19.45
2018-03-16T06:44:23.110Z,19.35
2018-03-16T06:46:49.219Z,18.77
2018-03-16T06:49:15.306Z,21.02
2018-03-16T06:51:42.162Z,18.90
2018-03-16T06:54:08.258Z,19.35
2018-03-16T06:56:34.362Z,18.95
2018-03-16T06:59:00.472Z,18.40
2018-03-16T07:01:26.558Z,19.60
2018-03-16T07:03:52.644Z,17.17
2018-03-16T07:06:18.758Z,17.98
2018-03-16T07:08:44.908Z,18.23
2018-03-16T07:11:11.227Z,18.70
2018-03-16T07:13:37.309Z,17.75
2018-03-16T07:16:03.599Z,19.40
2018-03-16T07:18:37.593Z,18.77
2018-03-16T07:21:04.541Z,16.52
2018-03-16T07:23:31.377Z,17.23
2018-03-16T07:25:57.464Z,17.62
2018-03-16T07:28:23.568Z,16.70
2018-03-16T07:30:49.744Z,16.55
2018-03-16T07:33:16.564Z,16.60
2018-03-16T07:35:42.660Z,17.62
2018-03-16T07:38:08.763Z,18.55
2018-03-16T07:40:34.901Z,17.62
2018-03-16T07:43:00.983Z,18.85
2018-03-16T07:45:33.324Z,16.42
2018-03-16T07:47:59.928Z,17.23
2018-03-16T07:50:26.031Z,17.17
2018-03-16T07:52:52.858Z,17.48
2018-03-16T07:55:18.975Z,16.35
2018-03-16T07:57:45.476Z,15.80
2018-03-16T08:00:11.610Z,16.52
2018-03-16T08:02:40.923Z,16.10
2018-03-16T08:05:07.840Z,15.38
2018-03-16T08:07:33.931Z,14.68
2018-03-16T08:10:00.793Z,15.05
2018-03-16T08:12:26.894Z,14.82
2018-03-16T08:14:53.009Z,15.15
2018-03-16T08:17:19.185Z,15.63
2018-03-16T08:19:45.685Z,14.93
2018-03-16T08:22:12.272Z,15.35
2018-03-16T08:24:38.393Z,16.98
2018-03-16T08:27:05.496Z,14.95
2018-03-16T08:29:31.943Z,15.25
2018-03-16T08:31:58.049Z,16.23
2018-03-16T08:34:24.146Z,17.42
2018-03-16T08:36:50.994Z,15.68
2018-03-16T08:39:18.011Z,16.75
2018-03-16T08:41:44.153Z,16.65
2018-03-16T08:44:10.332Z,15.18
2018-03-16T08:46:36.439Z,16.20
2018-03-16T08:49:02.649Z,16.17
2018-03-16T08:51:28.788Z,17.05
2018-03-16T08:53:54.892Z,14.68
2018-03-16T08:56:21.027Z,17.15
2018-03-16T08:58:47.913Z,17.08
2018-03-16T09:01:14.816Z,16.83
2018-03-16T09:03:41.004Z,18.35
2018-03-16T09:06:07.873Z,17.50
2018-03-16T09:08:34.039Z,16.67
2018-03-16T09:11:00.194Z,15.85
2018-03-16T09:13:26.264Z,17.98
2018-03-16T09:15:52.374Z,17.80
2018-03-16T09:18:18.704Z,18.17
2018-03-16T09:20:44.986Z,16.23
2018-03-16T09:23:14.028Z,16.25
2018-03-16T09:25:40.340Z,17.33
2018-03-16T09:28:06.647Z,16.12
2018-03-16T09:30:32.972Z,17.37
2018-03-16T09:32:59.227Z,16.23
2018-03-16T09:35:26.305Z,16.40
2018-03-16T09:37:53.441Z,17.40
2018-03-16T09:40:20.301Z,17.58
2018-03-16T09:42:46.392Z,14.95
2018-03-16T09:45:12.525Z,15.88
2018-03-16T09:47:38.852Z,16.70
2018-03-16T09:50:16.162Z,16.08
2018-03-16T09:52:42.272Z,15.25
2018-03-16T09:55:23.393Z,15.48
2018-03-16T09:57:49.502Z,13.93
2018-03-16T10:00:15.625Z,16.33
2018-03-16T10:02:41.756Z,15.35
2018-03-16T10:05:07.858Z,16.65
2018-03-16T10:07:33.965Z,14.77
2018-03-16T10:10:00.077Z,16.42
2018-03-16T10:12:26.905Z,15.38
2018-03-16T10:14:53.019Z,15.75
2018-03-16T10:17:19.095Z,16.50
2018-03-16T10:19:45.186Z,13.68
2018-03-16T10:22:11.290Z,15.35
2018-03-16T10:24:38.178Z,15.02
2018-03-16T10:27:04.329Z,17.80
2018-03-16T10:29:30.412Z,15.10
2018-03-16T10:31:56.488Z,15.75
2018-03-16T10:34:22.555Z,16.20
2018-03-16T10:36:48.635Z,15.45
2018-03-16T10:39:15.464Z,16.80
2018-03-16T10:41:41.560Z,16.55
2018-03-16T10:44:07.826Z,16.17
2018-03-16T10:46:33.944Z,17.30
2018-03-16T10:49:00.074Z,16.80
2018-03-16T10:51:26.165Z,17.87
2018-03-16T10:53:52.250Z,16.75
2018-03-16T10:56:18.336Z,15.63
2018-03-16T10:58:44.595Z,15.75
2018-03-16T11:01:17.288Z,16.17
2018-03-16T11:03:45.454Z,14.93
2018-03-16T11:06:11.561Z,13.55
2018-03-16T11:08:39.980Z,15.82
2018-03-16T11:11:06.075Z,16.48
2018-03-16T11:13:32.385Z,16.20
2018-03-16T11:15:59.231Z,14.85
2018-03-16T11:18:25.483Z,13.82
2018-03-16T11:20:51.764Z,15.70
2018-03-16T11:23:17.870Z,13.75
2018-03-16T11:25:44.746Z,14.48
2018-03-16T11:28:10.836Z,16.23
2018-03-16T11:30:36.939Z,15.88
2018-03-16T11:33:03.052Z,16.33
2018-03-16T11:35:29.888Z,17.70
2018-03-16T11:37:56.201Z,16.12
2018-03-16T11:40:22.291Z,16.65
2018-03-16T11:42:49.108Z,16.90
2018-03-16T11:45:15.204Z,14.68
2018-03-16T11:47:42.194Z,15.20
2018-03-16T11:50:08.432Z,15.13
2018-03-16T11:52:35.506Z,13.80
2018-03-16T11:55:01.711Z,15.20
2018-03-16T11:57:27.849Z,15.43
2018-03-16T11:59:54.061Z,15.50
2018-03-16T12:02:20.912Z,14.68
2018-03-16T12:04:47.658Z,13.95
2018-03-16T12:07:14.569Z,15.20
2018-03-16T12:09:40.668Z,13.95
2018-03-16T12:12:09.212Z,13.85
2018-03-16T12:14:35.297Z,13.35
2018-03-16T12:17:02.156Z,13.70
2018-03-16T12:19:29.021Z,13.68
2018-03-16T12:21:55.877Z,13.52
2018-03-16T12:24:22.004Z,12.80
2018-03-16T12:26:48.847Z,13.13
2018-03-16T12:29:14.979Z,13.23
2018-03-16T12:31:41.063Z,13.50
2018-03-16T12:34:08.083Z,13.85
2018-03-16T12:36:34.183Z,12.75
2018-03-16T12:39:01.353Z,12.13
2018-03-16T12:41:27.454Z,11.82
2018-03-16T12:43:53.577Z,12.30
2018-03-16T12:46:19.724Z,11.00
2018-03-16T12:48:45.872Z,12.55
2018-03-16T12:51:12.712Z,12.85
2018-03-16T12:53:38.815Z,13.18
2018-03-16T12:56:04.917Z,10.93
2018-03-16T12:58:31.778Z,11.27
2018-03-16T13:00:58.636Z,11.05
2018-03-16T13:03:25.540Z,12.60
2018-03-16T13:05:51.663Z,11.43
2018-03-16T13:08:17.896Z,11.90
2018-03-16T13:10:44.001Z,10.40
2018-03-16T13:13:10.116Z,11.75
2018-03-16T13:15:36.967Z,9.95
2018-03-16T13:18:03.103Z,10.15
2018-03-16T13:20:29.199Z,9.98
2018-03-16T13:22:57.297Z,10.07
2018-03-16T13:25:25.695Z,8.05
2018-03-16T13:27:51.878Z,8.60
2018-03-16T13:30:18.782Z,5.72
2018-03-16T13:32:44.884Z,8.10
2018-03-16T13:35:10.984Z,8.30
2018-03-16T13:37:37.074Z,8.25
2018-03-16T13:40:03.892Z,6.70
2018-03-16T13:42:29.980Z,5.65
2018-03-16T13:44:56.360Z,7.32
2018-03-16T13:47:22.487Z,6.78
2018-03-16T13:49:48.746Z,7.05
2018-03-16T13:52:14.949Z,7.32
2018-03-16T13:54:40.981Z,6.75
2018-03-16T13:57:07.817Z,7.93
2018-03-16T13:59:33.971Z,7.22
2018-03-16T14:02:00.067Z,6.50
2018-03-16T14:04:26.145Z,6.62
2018-03-16T14:06:52.236Z,7.90
2018-03-16T14:09:19.998Z,6.70
2018-03-16T14:11:46.082Z,7.50
2018-03-16T14:14:12.308Z,5.75
2018-03-16T14:16:38.764Z,6.30
2018-03-16T14:19:04.973Z,6.45
2018-03-16T14:21:32.341Z,6.10
2018-03-16T14:23:58.568Z,7.62
2018-03-16T14:26:24.841Z,8.88
2018-03-16T14:28:52.548Z,7.50
2018-03-16T14:31:18.636Z,7.05
2018-03-16T14:33:44.815Z,7.47
2018-03-16T14:36:11.876Z,8.05
2018-03-16T14:38:38.746Z,6.87
2018-03-16T14:41:04.836Z,8.90
2018-03-16T14:43:30.920Z,7.60
2018-03-16T14:45:57.011Z,6.10
2018-03-16T14:48:23.856Z,7.55
2018-03-16T14:50:50.716Z,8.27
2018-03-16T14:53:17.108Z,7.62
2018-03-16T14:55:43.175Z,7.72
2018-03-16T14:58:09.323Z,7.80
2018-03-16T15:00:36.145Z,7.87
2018-03-16T15:03:04.528Z,8.18
2018-03-16T15:05:31.372Z,8.63
2018-03-16T15:07:57.441Z,7.68
2018-03-16T15:10:23.549Z,9.00
2018-03-16T15:12:50.563Z,9.07
2018-03-16T15:15:16.780Z,7.75
2018-03-16T15:17:44.304Z,9.25
2018-03-16T15:20:10.668Z,9.95
2018-03-16T15:22:37.502Z,7.78
2018-03-16T15:25:03.584Z,9.77
2018-03-16T15:27:29.688Z,10.27
2018-03-16T15:29:55.906Z,11.12
2018-03-16T15:32:22.057Z,9.38
2018-03-16T15:34:48.157Z,9.82
2018-03-16T15:37:14.256Z,10.80
2018-03-16T15:39:40.373Z,10.70
2018-03-16T15:42:08.348Z,11.73
2018-03-16T15:44:34.441Z,10.73
2018-03-16T15:47:01.277Z,11.90
2018-03-16T15:49:27.395Z,12.13
2018-03-16T15:51:53.485Z,11.52
2018-03-16T15:54:20.364Z,11.70
2018-03-16T15:56:46.465Z,11.07
2018-03-16T15:59:12.575Z,11.70
2018-03-16T16:01:38.656Z,10.90
2018-03-16T16:04:04.828Z,10.32
2018-03-16T16:06:31.352Z,12.13
2018-03-16T16:08:57.440Z,10.10
2018-03-16T16:11:23.649Z,13.07
2018-03-16T16:13:49.773Z,13.18
2018-03-16T16:16:15.905Z,15.25
2018-03-16T16:18:42.008Z,14.45
2018-03-16T16:21:08.148Z,15.18
2018-03-16T16:23:34.232Z,15.13
2018-03-16T16:26:00.354Z,13.35
2018-03-16T16:28:27.997Z,13.90
2018-03-16T16:30:54.185Z,14.75
2018-03-16T16:33:20.610Z,10.70
2018-03-16T16:35:47.572Z,12.90
2018-03-16T16:38:14.404Z,12.10
2018-03-16T16:40:40.496Z,12.37
2018-03-16T16:43:07.317Z,13.65
2018-03-16T16:45:33.415Z,15.63
2018-03-16T16:48:06.992Z,14.20
2018-03-16T16:50:33.080Z,13.82
2018-03-16T16:52:59.205Z,14.32
2018-03-16T16:55:25.325Z,8.23
2018-03-16T16:57:51.443Z,12.73
2018-03-16T17:00:18.286Z,12.52
2018-03-16T17:02:44.441Z,11.80
2018-03-16T17:05:16.492Z,13.30
2018-03-16T17:07:42.724Z,12.23
2018-03-16T17:10:09.593Z,12.70
2018-03-16T17:12:35.701Z,12.15
2018-03-16T17:15:01.774Z,11.48
2018-03-16T17:17:27.866Z,11.77
2018-03-16T17:19:56.544Z,9.82
2018-03-16T17:22:23.386Z,12.48
2018-03-16T17:24:50.232Z,10.30
2018-03-16T17:27:18.140Z,10.63
2018-03-16T17:29:44.267Z,13.43
2018-03-16T17:32:10.586Z,11.60
2018-03-16T17:34:36.698Z,11.23
2018-03-16T17:37:06.728Z,11.60
2018-03-16T17:39:32.831Z,12.57
2018-03-16T17:41:59.663Z,13.05
2018-03-16T17:44:25.744Z,11.30
2018-03-16T17:46:51.846Z,10.00
2018-03-16T17:49:18.700Z,11.25
2018-03-16T17:51:44.858Z,11.40
2018-03-16T17:54:12.165Z,11.00
2018-03-16T17:56:38.293Z,11.45
2018-03-16T17:59:05.143Z,7.57
2018-03-16T18:01:31.996Z,11.98
2018-03-16T18:03:58.094Z,12.32
2018-03-16T18:06:24.224Z,11.57
2018-03-16T18:08:51.131Z,12.50
2018-03-16T18:11:17.245Z,12.25
2018-03-16T18:13:43.373Z,11.50
2018-03-16T18:16:10.256Z,12.80
2018-03-16T18:18:36.345Z,12.90
2018-03-16T18:21:02.425Z,12.37
2018-03-16T18:23:28.536Z,11.27
2018-03-16T18:25:55.425Z,11.40
2018-03-16T18:28:21.523Z,9.38
2018-03-16T18:30:47.627Z,13.02
2018-03-16T18:33:16.896Z,11.82
2018-03-16T18:35:43.736Z,9.50
2018-03-16T18:38:09.878Z,11.70
2018-03-16T18:40:38.803Z,10.98
2018-03-16T18:43:05.688Z,12.23
2018-03-16T18:45:31.929Z,12.77
2018-03-16T18:47:58.068Z,8.32
2018-03-16T18:50:24.528Z,10.57
2018-03-16T18:52:50.693Z,8.20
2018-03-16T18:55:17.556Z,10.95
2018-03-16T18:57:43.745Z,11.00
2018-03-16T19:00:09.820Z,10.68
2018-03-16T19:02:35.904Z,8.43
2018-03-16T19:05:01.979Z,9.68
2018-03-16T19:07:28.109Z,8.48
2018-03-16T19:09:54.952Z,11.20
2018-03-16T19:12:21.055Z,9.35
2018-03-16T19:14:47.200Z,11.25
2018-03-16T19:17:13.311Z,6.30
2018-03-16T19:19:39.453Z,10.13
2018-03-16T19:22:05.527Z,12.10
2018-03-16T19:24:31.630Z,8.00
2018-03-16T19:26:57.724Z,10.25
2018-03-16T19:29:26.080Z,10.52
2018-03-16T19:31:52.200Z,11.30
2018-03-16T19:34:18.312Z,11.27
2018-03-16T19:36:45.262Z,11.05
2018-03-16T19:39:12.084Z,10.15
2018-03-16T19:41:38.169Z,10.65
2018-03-16T19:44:05.008Z,11.52
2018-03-16T19:46:31.123Z,10.85
2018-03-16T19:48:59.858Z,8.18
2018-03-16T19:51:25.959Z,6.62
2018-03-16T19:53:52.182Z,12.27
2018-03-16T19:56:18.305Z,10.30
2018-03-16T19:58:45.174Z,10.60
2018-03-16T20:01:12.045Z,11.77
2018-03-16T20:03:38.143Z,8.68
2018-03-16T20:06:04.276Z,11.12
2018-03-16T20:08:30.390Z,12.48
2018-03-16T20:10:56.535Z,9.70
2018-03-16T20:13:22.659Z,10.70
2018-03-16T20:15:49.472Z,10.02
2018-03-16T20:18:22.413Z,12.60
2018-03-16T20:20:48.507Z,8.38
2018-03-16T20:23:14.639Z,12.30
2018-03-16T20:25:40.761Z,11.98
2018-03-16T20:28:06.849Z,11.48
2018-03-16T20:30:33.666Z,7.70
2018-03-16T20:33:04.369Z,9.88
2018-03-16T20:35:30.452Z,12.68
2018-03-16T20:37:56.544Z,9.25
2018-03-16T20:40:22.629Z,12.77
2018-03-16T20:42:49.436Z,10.40
2018-03-16T20:45:15.533Z,11.23
2018-03-16T20:47:41.657Z,12.25
2018-03-16T20:50:07.782Z,11.18
2018-03-16T20:52:34.580Z,8.27
2018-03-16T20:55:03.913Z,12.05
2018-03-16T20:57:29.987Z,11.60
2018-03-16T20:59:56.813Z,9.70
2018-03-16T21:02:22.895Z,10.18
2018-03-16T21:04:49.707Z,12.30
2018-03-16T21:07:15.788Z,10.60
2018-03-16T21:09:42.633Z,9.45
2018-03-16T21:12:08.833Z,12.05
2018-03-16T21:14:34.943Z,12.68
2018-03-16T21:17:01.780Z,11.50
2018-03-16T21:19:28.093Z,12.05
2018-03-16T21:21:54.392Z,10.65
2018-03-16T21:24:21.418Z,11.65
2018-03-16T21:26:47.823Z,9.32
2018-03-16T21:29:14.156Z,7.50
2018-03-16T21:31:40.446Z,14.05
2018-03-16T21:34:06.790Z,12.65
2018-03-16T21:36:33.226Z,10.75
2018-03-16T21:39:01.312Z,6.78
2018-03-16T21:41:27.616Z,10.88
2018-03-16T21:43:53.938Z,9.75
2018-03-16T21:46:20.236Z,11.57
2018-03-16T21:48:46.568Z,11.25
2018-03-16T21:51:12.877Z,11.57
2018-03-16T21:53:39.185Z,9.80
2018-03-16T21:56:05.515Z,10.90
2018-03-16T21:58:31.820Z,11.77
2018-03-16T22:00:58.153Z,10.30
2018-03-16T22:03:24.440Z,11.18
2018-03-16T22:05:50.736Z,11.63
2018-03-16T22:08:17.034Z,10.38
2018-03-16T22:10:45.457Z,10.98
2018-03-16T22:13:11.764Z,12.00
2018-03-16T22:15:38.772Z,11.40
2018-03-16T22:18:05.060Z,10.68
2018-03-16T22:20:31.381Z,12.02
2018-03-16T22:22:57.680Z,9.13
2018-03-16T22:25:23.993Z,11.07
2018-03-16T22:27:50.324Z,11.57
2018-03-16T22:30:17.361Z,10.95
2018-03-16T22:32:43.659Z,9.35
2018-03-16T22:35:10.048Z,11.05
2018-03-16T22:37:36.331Z,9.88
2018-03-16T22:40:02.658Z,8.40
2018-03-16T22:42:29.788Z,10.60
2018-03-16T22:44:57.672Z,9.85
2018-03-16T22:47:24.028Z,9.95
2018-03-16T22:49:51.299Z,10.02
2018-03-16T22:52:17.607Z,6.90
2018-03-16T22:54:50.995Z,9.60
2018-03-16T22:57:17.361Z,9.77
2018-03-16T22:59:43.645Z,10.20
2018-03-16T23:02:09.944Z,8.40
2018-03-16T23:04:36.254Z,10.40
2018-03-16T23:07:02.628Z,9.80
2018-03-16T23:09:30.092Z,7.95
2018-03-16T23:11:56.424Z,7.82
2018-03-16T23:14:23.482Z,9.65
2018-03-16T23:16:50.316Z,9.82
2018-03-16T23:19:16.539Z,10.63
2018-03-16T23:21:44.716Z,8.07
2018-03-16T23:24:11.003Z,7.85
2018-03-16T23:26:37.365Z,9.05
2018-03-16T23:29:04.463Z,9.70
2018-03-16T23:31:30.791Z,9.23
2018-03-16T23:33:57.873Z,8.23
2018-03-16T23:36:24.179Z,9.35
2018-03-16T23:38:50.524Z,5.80
2018-03-16T23:41:16.847Z,9.90
2018-03-16T23:43:43.136Z,9.13
2018-03-16T23:46:09.593Z,9.02
2018-03-16T23:48:36.632Z,9.30
2018-03-16T23:51:02.952Z,8.05
2018-03-16T23:53:30.049Z,8.57
2018-03-16T23:55:56.144Z,7.85
2018-03-16T23:58:22.272Z,6.60
